Foxhome, Minnesota
Current Conditions -  °F | °C
As of 10:34 AM on Friday 31 Oct 2014 (Local Time) from KFFM Reporting Station
Clear Clear  
Wind Chill: 23°   Ceiling: Unl
Heat Index: 28°   Visibility: 10mi
Dew Point: 19°   Wind: 5mph
Humidity: 69%   Direction: 70°ENE
Pressure: 30.62"   Gusts: NA
Location:  46.28°N, 96.31°W
Report Text: KFFM 311534Z AUTO 07004KT 10SM CLR M02/M07 A3062 RMK AO2
Loading
Personal Weather Stations






























Interactive Weather Map
Tropical Storm Tracking
New forecast layout! Learn more

10-Day Weather Forecast

Advertisements
Track Severe Weather on mobile